Anshan, China
Current Conditions -  °F | °C
As of 3:30 PM on Sunday 26 Oct 2014 (Local Time) from ZYTX Reporting Station
Clear Clear  
Wind Chill: 43°   Ceiling: Unl
Heat Index: 48°   Visibility: 6mi
Dew Point: -2°   Wind: 13mph
Humidity: 12%   Direction: 320°NW
Pressure: 30.27"   Gusts: NA
Location:  41.12°N, 122.95°E
Report Text: ZYTX 260730Z 32006MPS 300V360 CAVOK 09/M19 Q1025 NOSIG
Loading
Personal Weather Stations






























Interactive Weather Map
Tropical Storm Tracking
New forecast layout! Learn more

10-Day Weather Forecast

Advertisements
Track Severe Weather on mobile